createdAt,value
2019-04-10T00:05:01.196Z,12.80
2019-04-10T00:07:50.623Z,12.03
2019-04-10T00:10:40.255Z,14.37
2019-04-10T00:13:30.944Z,13.17
2019-04-10T00:16:21.046Z,14.83
2019-04-10T00:19:11.030Z,12.43
2019-04-10T00:21:59.869Z,12.77
2019-04-10T00:24:48.702Z,15.80
2019-04-10T00:27:37.485Z,12.70
2019-04-10T00:30:27.088Z,11.50
2019-04-10T00:33:16.809Z,13.23
2019-04-10T00:36:05.856Z,11.00
2019-04-10T00:38:56.110Z,11.57
2019-04-10T00:41:44.932Z,11.63
2019-04-10T00:44:33.712Z,24.47
2019-04-10T00:47:23.241Z,11.80
2019-04-10T00:50:13.082Z,13.60
2019-04-10T00:52:54.725Z,12.43
2019-04-10T00:55:44.018Z,13.27
2019-04-10T00:58:34.026Z,15.20
2019-04-10T01:01:23.620Z,13.13
2019-04-10T01:04:13.992Z,14.10
2019-04-10T01:07:04.302Z,13.20
2019-04-10T01:09:53.451Z,13.10
2019-04-10T01:12:44.000Z,11.10
2019-04-10T01:15:34.509Z,14.40
2019-04-10T01:18:24.730Z,13.80
2019-04-10T01:21:32.602Z,15.30
2019-04-10T01:27:15.992Z,13.20
2019-04-10T01:30:26.975Z,13.03
2019-04-10T01:36:23.565Z,13.07
2019-04-10T01:42:22.794Z,13.50
2019-04-10T01:45:13.299Z,11.90
2019-04-10T01:48:03.741Z,13.10
2019-04-10T01:50:53.568Z,12.63
2019-04-10T01:53:35.640Z,12.53
2019-04-10T01:56:30.203Z,12.60
2019-04-10T02:05:24.792Z,11.87
2019-04-10T02:08:16.080Z,12.80
2019-04-10T02:11:04.881Z,11.83
2019-04-10T02:13:54.095Z,12.47
2019-04-10T02:16:43.244Z,11.47
2019-04-10T02:19:34.327Z,12.63
2019-04-10T02:22:24.598Z,12.13
2019-04-10T02:25:15.692Z,12.73
2019-04-10T02:28:05.080Z,14.77
2019-04-10T02:30:54.487Z,12.67
2019-04-10T02:33:44.390Z,14.03
2019-04-10T02:36:34.416Z,11.50
2019-04-10T02:39:32.368Z,10.90
2019-04-10T02:42:14.401Z,11.53
2019-04-10T02:45:26.002Z,13.47
2019-04-10T02:48:17.084Z,12.13
2019-04-10T02:51:07.655Z,12.80
2019-04-10T02:53:50.221Z,12.30
2019-04-10T02:56:40.935Z,17.03
2019-04-10T02:59:31.102Z,12.00
2019-04-10T03:02:20.284Z,12.30
2019-04-10T03:05:10.783Z,12.57
2019-04-10T03:08:01.202Z,12.40
2019-04-10T03:10:55.845Z,12.40
2019-04-10T03:13:40.602Z,11.75
2019-04-10T03:16:29.395Z,11.63
2019-04-10T03:19:19.119Z,15.53
2019-04-10T03:22:09.134Z,13.57
2019-04-10T03:25:00.244Z,16.20
2019-04-10T03:27:50.373Z,13.07
2019-04-10T03:30:41.528Z,12.30
2019-04-10T03:33:52.177Z,12.47
2019-04-10T03:39:36.320Z,11.30
2019-04-10T03:42:25.332Z,11.90
2019-04-10T03:48:10.183Z,13.30
2019-04-10T03:50:58.983Z,13.20
2019-04-10T03:53:40.559Z,16.10
2019-04-10T03:56:29.718Z,11.43
2019-04-10T03:59:20.191Z,11.57
2019-04-10T04:02:11.550Z,13.03
2019-04-10T04:05:00.881Z,11.70
2019-04-10T04:07:50.657Z,15.25
2019-04-10T04:10:40.454Z,12.20
2019-04-10T04:13:31.293Z,13.30
2019-04-10T04:16:21.227Z,12.73
2019-04-10T04:19:10.182Z,14.70
2019-04-10T04:21:58.915Z,12.83
2019-04-10T04:24:48.210Z,12.97
2019-04-10T04:27:38.217Z,13.83
2019-04-10T04:30:27.016Z,11.93
2019-04-10T04:33:15.843Z,14.20
2019-04-10T04:36:04.631Z,13.40
2019-04-10T04:38:53.415Z,12.93
2019-04-10T04:41:42.277Z,12.87
2019-04-10T04:44:31.152Z,18.30
2019-04-10T04:47:19.942Z,13.10
2019-04-10T04:50:09.761Z,14.10
2019-04-10T04:53:00.378Z,13.50
2019-04-10T04:55:43.000Z,16.03
2019-04-10T04:58:31.803Z,13.40
2019-04-10T05:01:21.119Z,13.97
2019-04-10T05:04:11.464Z,13.03
2019-04-10T05:07:00.244Z,12.17
2019-04-10T05:09:49.072Z,14.03
2019-04-10T05:12:39.549Z,15.23
2019-04-10T05:15:29.050Z,13.63
2019-04-10T05:18:19.083Z,12.93
2019-04-10T05:21:10.611Z,14.77
2019-04-10T05:24:00.189Z,12.67
2019-04-10T05:26:49.143Z,14.50
2019-04-10T05:29:39.487Z,15.50
2019-04-10T05:32:28.273Z,14.20
2019-04-10T05:35:17.310Z,11.13
2019-04-10T05:38:08.044Z,12.40
2019-04-10T05:40:59.166Z,12.77
2019-04-10T05:43:48.893Z,11.10
2019-04-10T05:46:39.099Z,13.10
2019-04-10T05:49:28.911Z,11.60
2019-04-10T05:52:18.431Z,13.10
2019-04-10T05:55:00.232Z,15.23
2019-04-10T05:57:49.082Z,13.60
2019-04-10T06:00:37.820Z,11.77
2019-04-10T06:03:26.622Z,13.97
2019-04-10T06:06:16.572Z,14.30
2019-04-10T06:09:26.936Z,14.40
2019-04-10T06:12:15.674Z,11.80
2019-04-10T06:15:26.518Z,13.23
2019-04-10T06:18:15.356Z,12.43
2019-04-10T06:21:05.077Z,14.60
2019-04-10T06:23:56.673Z,14.17
2019-04-10T06:26:45.896Z,12.30
2019-04-10T06:29:37.113Z,11.83
2019-04-10T06:32:27.471Z,11.60
2019-04-10T06:35:17.045Z,12.93
2019-04-10T06:38:06.418Z,13.30
2019-04-10T06:40:56.338Z,13.43
2019-04-10T06:43:45.373Z,12.30
2019-04-10T06:46:37.975Z,15.00
2019-04-10T06:49:26.960Z,14.70
2019-04-10T06:52:16.738Z,17.10
2019-04-10T06:55:00.734Z,12.43
2019-04-10T06:57:55.791Z,15.27
2019-04-10T07:00:41.044Z,15.33
2019-04-10T07:03:45.880Z,13.30
2019-04-10T07:06:22.805Z,13.40
2019-04-10T07:12:10.800Z,15.47
2019-04-10T07:14:59.776Z,13.30
2019-04-10T07:17:51.083Z,15.83
2019-04-10T07:20:40.595Z,12.20
2019-04-10T07:23:31.886Z,14.20
2019-04-10T07:26:30.975Z,13.43
2019-04-10T07:29:11.057Z,15.37
2019-04-10T07:32:00.922Z,14.37
2019-04-10T07:34:50.784Z,12.90
2019-04-10T07:37:40.462Z,12.87
2019-04-10T07:40:33.858Z,13.20
2019-04-10T07:43:24.484Z,12.87
2019-04-10T07:46:10.518Z,14.07
2019-04-10T07:48:59.294Z,13.17
2019-04-10T07:51:49.146Z,13.20
2019-04-10T07:54:39.602Z,13.70
2019-04-10T07:57:22.513Z,12.93
2019-04-10T08:03:21.120Z,13.37
2019-04-10T08:06:10.994Z,13.67
2019-04-10T08:09:01.288Z,13.23
2019-04-10T08:11:51.045Z,14.30
2019-04-10T08:14:42.025Z,15.07
2019-04-10T08:17:32.476Z,12.55
2019-04-10T08:20:22.472Z,14.80
2019-04-10T08:23:12.214Z,14.50
2019-04-10T08:26:01.770Z,13.60
2019-04-10T08:29:01.710Z,14.60
2019-04-10T08:31:50.515Z,14.60
2019-04-10T08:34:40.049Z,14.87
2019-04-10T08:37:29.863Z,15.20
2019-04-10T08:40:19.103Z,12.90
2019-04-10T08:43:09.156Z,12.37
2019-04-10T08:45:58.907Z,14.13
2019-04-10T08:48:49.571Z,13.70
2019-04-10T08:51:39.461Z,15.10
2019-04-10T08:54:29.501Z,21.60
2019-04-10T08:57:12.222Z,14.07
2019-04-10T09:00:00.989Z,13.23
2019-04-10T09:02:50.538Z,11.47
2019-04-10T09:05:40.299Z,14.17
2019-04-10T09:08:29.102Z,13.95
2019-04-10T09:11:24.658Z,13.13
2019-04-10T09:14:08.653Z,12.60
2019-04-10T09:16:58.934Z,11.90
2019-04-10T09:19:47.732Z,13.60
2019-04-10T09:22:57.177Z,13.67
2019-04-10T09:25:27.130Z,14.70
2019-04-10T09:28:16.168Z,15.10
2019-04-10T09:31:07.382Z,10.77
2019-04-10T09:33:56.935Z,12.20
2019-04-10T09:36:45.778Z,13.13
2019-04-10T09:39:35.632Z,12.17
2019-04-10T09:42:44.203Z,11.40
2019-04-10T09:45:33.054Z,12.83
2019-04-10T09:48:22.248Z,12.77
2019-04-10T09:51:15.315Z,13.50
2019-04-10T09:54:03.607Z,13.70
2019-04-10T09:56:46.394Z,12.57
2019-04-10T09:59:36.906Z,14.20
2019-04-10T10:02:25.744Z,13.63
2019-04-10T10:05:14.778Z,12.93
2019-04-10T10:08:04.313Z,12.20
2019-04-10T10:10:54.127Z,13.47
2019-04-10T10:16:50.673Z,14.47
2019-04-10T10:19:40.712Z,13.83
2019-04-10T10:22:30.922Z,12.30
2019-04-10T10:25:21.524Z,11.37
2019-04-10T10:31:06.195Z,12.03
2019-04-10T10:33:56.542Z,13.30
2019-04-10T10:36:48.939Z,12.20
2019-04-10T10:39:37.193Z,13.67
2019-04-10T10:42:25.969Z,12.00
2019-04-10T10:45:15.085Z,13.70
2019-04-10T10:48:03.896Z,14.07
2019-04-10T10:50:53.326Z,12.20
2019-04-10T10:53:44.063Z,12.30
2019-04-10T10:56:34.165Z,12.30
2019-04-10T10:59:25.228Z,11.53
2019-04-10T11:02:14.781Z,15.13
2019-04-10T11:05:06.884Z,13.27
2019-04-10T11:07:55.683Z,11.73
2019-04-10T11:10:49.146Z,13.30
2019-04-10T11:13:35.113Z,10.93
2019-04-10T11:16:24.840Z,13.80
2019-04-10T11:19:15.356Z,15.03
2019-04-10T11:22:26.546Z,12.10
2019-04-10T11:25:16.616Z,16.67
2019-04-10T11:28:06.037Z,15.93
2019-04-10T11:30:56.171Z,14.33
2019-04-10T11:33:51.370Z,16.17
2019-04-10T11:36:37.000Z,17.87
2019-04-10T11:39:28.287Z,14.03
2019-04-10T11:42:16.316Z,17.30
2019-04-10T11:44:59.347Z,14.77
2019-04-10T11:47:50.751Z,15.97
2019-04-10T11:50:38.750Z,15.27
2019-04-10T11:53:27.772Z,13.30
2019-04-10T11:56:18.911Z,21.07
2019-04-10T11:59:09.817Z,13.30
2019-04-10T12:02:02.656Z,10.90
2019-04-10T12:13:19.845Z,14.20
2019-04-10T12:16:10.206Z,15.67
2019-04-10T12:18:59.226Z,18.17
2019-04-10T12:21:50.376Z,15.07
2019-04-10T12:24:40.535Z,14.90
2019-04-10T12:27:49.565Z,16.57
2019-04-10T12:30:39.418Z,13.60
2019-04-10T12:33:29.661Z,15.43
2019-04-10T12:36:20.502Z,15.00
2019-04-10T12:39:10.407Z,13.77
2019-04-10T12:41:59.676Z,10.87
2019-04-10T12:44:41.225Z,14.13
2019-04-10T12:47:30.912Z,16.53
2019-04-10T12:50:20.765Z,15.60
2019-04-10T12:53:09.674Z,13.70
2019-04-10T12:55:59.743Z,16.83
2019-04-10T12:58:49.194Z,13.93
2019-04-10T13:01:38.582Z,12.17
2019-04-10T13:04:28.619Z,14.40
2019-04-10T13:07:17.532Z,11.10
2019-04-10T13:10:27.449Z,13.63
2019-04-10T13:13:17.951Z,10.87
2019-04-10T13:16:07.803Z,15.90
2019-04-10T13:18:57.583Z,12.93
2019-04-10T13:21:46.720Z,11.20
2019-04-10T13:24:37.561Z,14.70
2019-04-10T13:27:28.576Z,13.57
2019-04-10T13:30:18.698Z,13.90
2019-04-10T13:33:08.888Z,13.80
2019-04-10T13:35:57.770Z,12.97
2019-04-10T13:38:46.631Z,13.20
2019-04-10T13:41:36.665Z,13.40
2019-04-10T13:44:19.413Z,18.40
2019-04-10T13:47:09.063Z,13.50
2019-04-10T13:50:00.019Z,14.63
2019-04-10T13:55:59.017Z,17.30
2019-04-10T13:58:49.313Z,13.10
2019-04-10T14:01:38.194Z,13.20
2019-04-10T14:04:27.243Z,16.73
2019-04-10T14:10:17.374Z,14.40
2019-04-10T14:16:14.796Z,13.70
2019-04-10T14:19:06.206Z,17.37
2019-04-10T14:21:57.475Z,16.12
2019-04-10T14:24:48.977Z,18.17
2019-04-10T14:27:38.504Z,14.20
2019-04-10T14:30:47.312Z,12.67
2019-04-10T14:33:36.150Z,14.23
2019-04-10T14:36:25.032Z,13.30
2019-04-10T14:42:42.674Z,15.50
2019-04-10T14:45:25.603Z,16.07
2019-04-10T14:48:33.640Z,16.77
2019-04-10T14:51:22.504Z,24.83
2019-04-10T14:54:11.439Z,19.70
2019-04-10T14:57:00.240Z,20.03
2019-04-10T14:59:49.313Z,22.20
2019-04-10T15:02:39.789Z,18.17
2019-04-10T15:05:30.281Z,17.60
2019-04-10T15:08:38.094Z,20.72
2019-04-10T15:11:26.882Z,13.17
2019-04-10T15:13:57.228Z,16.47
2019-04-10T15:16:53.406Z,15.87
2019-04-10T15:19:37.456Z,16.47
2019-04-10T15:22:27.328Z,16.00
2019-04-10T15:25:23.411Z,20.77
2019-04-10T15:28:12.207Z,20.05
2019-04-10T15:31:01.402Z,17.17
2019-04-10T15:33:51.845Z,18.37
2019-04-10T15:36:43.587Z,18.93
2019-04-10T15:39:36.264Z,19.90
2019-04-10T15:45:10.656Z,19.77
2019-04-10T15:48:00.504Z,19.48
2019-04-10T15:50:50.008Z,18.43
2019-04-10T15:53:38.840Z,18.97
2019-04-10T15:56:27.719Z,17.50
2019-04-10T15:59:16.524Z,18.40
2019-04-10T16:02:05.704Z,15.93
2019-04-10T16:04:55.902Z,18.70
2019-04-10T16:07:44.890Z,15.93
2019-04-10T16:10:55.119Z,15.80
2019-04-10T16:20:02.252Z,17.63
2019-04-10T16:23:10.154Z,16.50
2019-04-10T16:25:58.882Z,17.80
2019-04-10T16:28:47.687Z,17.23
2019-04-10T16:31:37.674Z,15.80
2019-04-10T16:37:24.259Z,19.63
2019-04-10T16:40:33.896Z,17.80
2019-04-10T16:43:24.396Z,14.60
2019-04-10T16:46:07.249Z,14.13
2019-04-10T16:48:56.091Z,15.37
2019-04-10T16:51:44.926Z,15.00
2019-04-10T16:54:33.706Z,23.23
2019-04-10T16:57:22.701Z,16.07
2019-04-10T17:03:42.099Z,13.25
2019-04-10T17:06:32.521Z,13.10
2019-04-10T17:12:42.114Z,14.43
2019-04-10T17:15:32.269Z,15.33
2019-04-10T17:18:24.378Z,14.70
2019-04-10T17:21:13.122Z,13.53
2019-04-10T17:26:59.454Z,12.83
2019-04-10T17:29:49.364Z,12.43
2019-04-10T17:35:33.719Z,13.87
2019-04-10T17:38:24.514Z,14.53
2019-04-10T17:41:33.359Z,14.60
2019-04-10T17:44:23.412Z,17.67
2019-04-10T17:47:09.463Z,13.80
2019-04-10T17:49:56.305Z,21.20
2019-04-10T17:52:45.257Z,21.95
2019-04-10T17:55:35.738Z,21.10
2019-04-10T17:58:26.128Z,20.80
2019-04-10T18:04:10.552Z,21.43
2019-04-10T18:06:59.637Z,15.43
2019-04-10T18:09:50.735Z,17.20
2019-04-10T18:12:40.666Z,16.02
2019-04-10T18:15:30.939Z,17.70
2019-04-10T18:18:39.945Z,22.30
2019-04-10T18:21:29.250Z,21.33
2019-04-10T18:24:18.033Z,17.13
2019-04-10T18:27:07.874Z,15.93
2019-04-10T18:29:57.374Z,16.97
2019-04-10T18:32:46.168Z,15.40
2019-04-10T18:38:43.821Z,20.67
2019-04-10T18:41:33.315Z,17.30
2019-04-10T18:44:22.764Z,22.73
2019-04-10T18:47:13.149Z,18.10
2019-04-10T18:50:22.435Z,16.40
2019-04-10T18:56:18.941Z,15.70
2019-04-10T18:59:26.896Z,14.90
2019-04-10T19:02:34.914Z,14.57
2019-04-10T19:05:43.670Z,12.97
2019-04-10T19:09:05.012Z,15.20
2019-04-10T19:14:50.833Z,16.37
2019-04-10T19:17:41.934Z,14.43
2019-04-10T19:20:51.553Z,17.60
2019-04-10T19:23:41.757Z,11.53
2019-04-10T19:35:19.890Z,19.03
2019-04-10T19:38:09.324Z,16.03
2019-04-10T19:40:58.812Z,14.87
2019-04-10T19:43:48.542Z,14.60
2019-04-10T19:46:38.299Z,17.57
2019-04-10T19:49:19.754Z,13.10
2019-04-10T19:51:49.182Z,14.30
2019-04-10T19:54:38.768Z,14.37
2019-04-10T19:57:47.814Z,12.60
2019-04-10T20:03:46.056Z,10.17
2019-04-10T20:06:34.833Z,10.70
2019-04-10T20:15:34.157Z,10.97
2019-04-10T20:18:24.530Z,15.23
2019-04-10T20:21:14.111Z,20.30
2019-04-10T20:24:02.886Z,12.85
2019-04-10T20:26:51.825Z,15.80
2019-04-10T20:32:52.423Z,11.43
2019-04-10T20:35:42.520Z,14.33
2019-04-10T20:38:33.492Z,11.20
2019-04-10T20:41:23.094Z,11.10
2019-04-10T20:44:11.884Z,11.90
2019-04-10T20:46:54.654Z,11.20
2019-04-10T20:49:44.629Z,11.90
2019-04-10T20:52:34.641Z,13.27
2019-04-10T20:55:25.741Z,11.93
2019-04-10T20:58:15.492Z,11.23
2019-04-10T21:01:06.059Z,9.00
2019-04-10T21:03:56.687Z,9.00
2019-04-10T21:06:46.623Z,10.07
2019-04-10T21:09:36.163Z,10.40
2019-04-10T21:12:25.925Z,9.53
2019-04-10T21:15:14.710Z,11.43
2019-04-10T21:18:04.626Z,8.80
2019-04-10T21:20:54.002Z,9.57
2019-04-10T21:23:42.787Z,9.53
2019-04-10T21:26:32.472Z,10.20
2019-04-10T21:29:42.078Z,8.80
2019-04-10T21:32:52.919Z,8.07
2019-04-10T21:38:40.705Z,10.10
2019-04-10T21:41:24.146Z,8.30
2019-04-10T21:47:21.619Z,10.53
2019-04-10T21:50:11.391Z,9.90
2019-04-10T21:53:00.186Z,11.00
2019-04-10T21:55:48.976Z,9.03
2019-04-10T21:58:38.806Z,11.00
2019-04-10T22:01:28.479Z,8.87
2019-04-10T22:07:32.325Z,10.43
2019-04-10T22:13:30.571Z,6.63
2019-04-10T22:19:28.755Z,9.07
2019-04-10T22:22:18.147Z,9.20
2019-04-10T22:30:52.669Z,9.40
2019-04-10T22:33:42.582Z,9.13
2019-04-10T22:36:33.141Z,10.20
2019-04-10T22:39:23.105Z,9.90
2019-04-10T22:42:06.004Z,8.90
2019-04-10T22:44:55.908Z,9.37
2019-04-10T22:47:45.515Z,9.00
2019-04-10T22:50:36.470Z,11.17
2019-04-10T22:53:26.465Z,10.30
2019-04-10T22:56:15.243Z,9.87
2019-04-10T22:59:04.035Z,9.57
2019-04-10T23:02:01.365Z,9.37
2019-04-10T23:04:43.388Z,8.40
2019-04-10T23:07:32.167Z,8.37
2019-04-10T23:10:21.234Z,8.50
2019-04-10T23:19:34.288Z,8.87
2019-04-10T23:22:23.121Z,8.00
2019-04-10T23:25:11.998Z,10.03
2019-04-10T23:28:01.102Z,9.80
2019-04-10T23:30:51.300Z,10.17
2019-04-10T23:36:48.657Z,8.97
2019-04-10T23:39:38.621Z,7.77
2019-04-10T23:42:28.330Z,9.30
2019-04-10T23:45:13.515Z,8.07
2019-04-10T23:48:02.379Z,9.90
2019-04-10T23:50:51.460Z,12.93
2019-04-10T23:53:41.632Z,9.93
2019-04-10T23:56:31.451Z,10.27
2019-04-10T23:59:20.993Z,9.87
